首页
METAR-TAF:

METAR-TAF

机场 :

奧爾托國際機場

拉巴斯, 玻利维亚

纬度: 16-31S, 经度: 068-11W, 海拔: 4058米

当前天气观测

该预报发布于28分钟前的07:00 UTC
风速8节,风向
温度
气压 1039 hPa
能見度: 4000
少量云层高于300英尺
散云层高于20000英尺
附近有雾

METAR: SLLP 240700Z 08008KT 4000E VCFG FEW003 SCT200 05/04Q1039

时间: 03:28 (07:28 UTC)

预报

该预报发布于3小时和28分钟前的04:00 UTC
预报有效从24日的 06点(UTC)到 25日的 06点(UTC)
风速5节,风向东转东北
能見度: 4000
少量云层高于200英尺
附近有雾
成为
从 24日的 11点(UTC)到 24日的 13点(UTC)
能见度10公里或以上
少量云层高于1500英尺
短暂存在
从 24日的 18点(UTC)到 24日的 22点(UTC)
风速12节,风向东北
能見度: 8000
少量云层高于1700英尺
少量云层高于2000英尺, 积雨云.
阵雨

TAF: SLLP 240400Z 2406/2506 07005KT 4000E VCFG FEW002 TX16/2420Z TN05/ 2410Z BECMG 2411/2413 9999 NSW FEW015 TEMPO 2418/2422 04012KT 8000 SHRA FEW017 FEW020CB

超过4000个机场的气象观测和天气预报(METAR&TAF报告)。

可查询的气象台以黄色和红色小点在地图上表示。

将鼠标移到小点上方,可查看气象台名称。

然后点击查看天气观测和预报。

如需切换地图:点击带黑十字的绿色按钮放大地图;点击带横线的绿色按钮缩小地图;或者点击绿色箭头查看邻近地区的地图。


METAR-TAF: